sensor_id;sensor_type;location;lat;lon;timestamp;P1;durP1;ratioP1;P2;durP2;ratioP2
25111;SDS011;13092;51.996;4.458;2022-10-31T00:01:10;31.88;;;29.77;;
25111;SDS011;13092;51.996;4.458;2022-10-31T00:03:40;31.20;;;29.15;;
25111;SDS011;13092;51.996;4.458;2022-10-31T00:06:08;31.73;;;29.65;;
25111;SDS011;13092;51.996;4.458;2022-10-31T00:08:36;33.03;;;30.83;;
25111;SDS011;13092;51.996;4.458;2022-10-31T00:11:09;32.22;;;30.13;;
25111;SDS011;13092;51.996;4.458;2022-10-31T00:13:37;31.88;;;29.77;;
25111;SDS011;13092;51.996;4.458;2022-10-31T00:16:12;30.38;;;28.40;;
25111;SDS011;13092;51.996;4.458;2022-10-31T00:18:43;31.35;;;29.35;;
25111;SDS011;13092;51.996;4.458;2022-10-31T00:21:14;31.33;;;29.42;;
25111;SDS011;13092;51.996;4.458;2022-10-31T00:23:42;31.95;;;29.75;;
25111;SDS011;13092;51.996;4.458;2022-10-31T00:26:12;32.42;;;30.23;;
25111;SDS011;13092;51.996;4.458;2022-10-31T00:28:40;31.95;;;29.85;;
25111;SDS011;13092;51.996;4.458;2022-10-31T00:31:08;31.52;;;29.42;;
25111;SDS011;13092;51.996;4.458;2022-10-31T00:33:38;32.92;;;30.73;;
25111;SDS011;13092;51.996;4.458;2022-10-31T00:36:07;32.30;;;30.05;;
25111;SDS011;13092;51.996;4.458;2022-10-31T00:38:42;32.55;;;30.25;;
25111;SDS011;13092;51.996;4.458;2022-10-31T00:41:14;31.33;;;29.20;;
25111;SDS011;13092;51.996;4.458;2022-10-31T00:43:43;32.85;;;30.55;;
25111;SDS011;13092;51.996;4.458;2022-10-31T00:46:12;31.80;;;29.80;;
25111;SDS011;13092;51.996;4.458;2022-10-31T00:48:40;32.05;;;29.80;;
25111;SDS011;13092;51.996;4.458;2022-10-31T00:51:09;31.48;;;29.48;;
25111;SDS011;13092;51.996;4.458;2022-10-31T00:53:37;31.45;;;29.35;;
25111;SDS011;13092;51.996;4.458;2022-10-31T00:56:05;32.42;;;30.23;;
25111;SDS011;13092;51.996;4.458;2022-10-31T00:58:35;32.05;;;29.88;;
25111;SDS011;13092;51.996;4.458;2022-10-31T01:01:03;31.55;;;29.48;;
25111;SDS011;13092;51.996;4.458;2022-10-31T01:03:35;31.40;;;29.40;;
25111;SDS011;13092;51.996;4.458;2022-10-31T01:06:05;31.48;;;29.48;;
25111;SDS011;13092;51.996;4.458;2022-10-31T01:08:34;31.90;;;29.80;;
25111;SDS011;13092;51.996;4.458;2022-10-31T01:11:05;32.60;;;30.05;;
25111;SDS011;13092;51.996;4.458;2022-10-31T01:13:43;31.67;;;29.58;;
25111;SDS011;13092;51.996;4.458;2022-10-31T01:16:14;31.63;;;29.42;;
25111;SDS011;13092;51.996;4.458;2022-10-31T01:18:43;31.55;;;29.45;;
25111;SDS011;13092;51.996;4.458;2022-10-31T01:21:15;31.88;;;29.67;;
25111;SDS011;13092;51.996;4.458;2022-10-31T01:23:44;31.55;;;29.45;;
25111;SDS011;13092;51.996;4.458;2022-10-31T01:26:13;33.28;;;30.75;;
25111;SDS011;13092;51.996;4.458;2022-10-31T01:28:45;31.50;;;29.50;;
25111;SDS011;13092;51.996;4.458;2022-10-31T01:31:16;31.92;;;29.83;;
25111;SDS011;13092;51.996;4.458;2022-10-31T01:33:44;31.83;;;29.63;;
25111;SDS011;13092;51.996;4.458;2022-10-31T01:36:14;32.60;;;30.13;;
25111;SDS011;13092;51.996;4.458;2022-10-31T01:38:45;31.30;;;29.08;;
25111;SDS011;13092;51.996;4.458;2022-10-31T01:41:15;32.15;;;29.98;;
25111;SDS011;13092;51.996;4.458;2022-10-31T01:43:47;30.98;;;28.88;;
25111;SDS011;13092;51.996;4.458;2022-10-31T01:46:17;32.47;;;30.38;;
25111;SDS011;13092;51.996;4.458;2022-10-31T01:48:49;31.88;;;29.77;;
25111;SDS011;13092;51.996;4.458;2022-10-31T01:51:18;32.65;;;30.45;;
25111;SDS011;13092;51.996;4.458;2022-10-31T01:53:48;34.22;;;31.92;;
25111;SDS011;13092;51.996;4.458;2022-10-31T01:56:19;33.55;;;31.25;;
25111;SDS011;13092;51.996;4.458;2022-10-31T01:58:50;32.97;;;30.77;;
25111;SDS011;13092;51.996;4.458;2022-10-31T02:01:21;33.28;;;30.88;;
25111;SDS011;13092;51.996;4.458;2022-10-31T02:03:49;32.88;;;30.63;;
25111;SDS011;13092;51.996;4.458;2022-10-31T02:06:21;33.40;;;31.13;;
25111;SDS011;13092;51.996;4.458;2022-10-31T02:08:56;33.53;;;31.33;;
25111;SDS011;13092;51.996;4.458;2022-10-31T02:11:26;32.50;;;30.30;;
25111;SDS011;13092;51.996;4.458;2022-10-31T02:13:57;33.38;;;30.98;;
25111;SDS011;13092;51.996;4.458;2022-10-31T02:16:26;32.97;;;30.77;;
25111;SDS011;13092;51.996;4.458;2022-10-31T02:18:54;32.40;;;30.30;;
25111;SDS011;13092;51.996;4.458;2022-10-31T02:21:24;31.92;;;29.83;;
25111;SDS011;13092;51.996;4.458;2022-10-31T02:30:11;31.83;;;29.50;;
25111;SDS011;13092;51.996;4.458;2022-10-31T02:32:47;31.60;;;29.30;;
25111;SDS011;13092;51.996;4.458;2022-10-31T02:35:26;32.45;;;30.25;;
25111;SDS011;13092;51.996;4.458;2022-10-31T02:38:07;32.25;;;30.02;;
25111;SDS011;13092;51.996;4.458;2022-10-31T02:40:47;33.95;;;31.45;;
25111;SDS011;13092;51.996;4.458;2022-10-31T02:43:20;33.22;;;30.95;;
25111;SDS011;13092;51.996;4.458;2022-10-31T02:45:54;33.40;;;31.15;;
25111;SDS011;13092;51.996;4.458;2022-10-31T02:48:28;32.47;;;30.05;;
25111;SDS011;13092;51.996;4.458;2022-10-31T02:50:59;32.50;;;30.25;;
25111;SDS011;13092;51.996;4.458;2022-10-31T02:53:31;32.63;;;30.10;;
25111;SDS011;13092;51.996;4.458;2022-10-31T02:56:04;32.33;;;30.02;;
25111;SDS011;13092;51.996;4.458;2022-10-31T02:58:37;31.80;;;29.60;;
25111;SDS011;13092;51.996;4.458;2022-10-31T03:04:18;31.23;;;29.13;;
25111;SDS011;13092;51.996;4.458;2022-10-31T03:06:57;30.38;;;28.27;;
25111;SDS011;13092;51.996;4.458;2022-10-31T03:09:38;31.58;;;29.20;;
25111;SDS011;13092;51.996;4.458;2022-10-31T03:12:13;31.92;;;29.48;;
25111;SDS011;13092;51.996;4.458;2022-10-31T03:14:48;32.65;;;30.25;;
25111;SDS011;13092;51.996;4.458;2022-10-31T03:17:22;32.22;;;29.88;;
25111;SDS011;13092;51.996;4.458;2022-10-31T03:19:56;32.50;;;30.00;;
25111;SDS011;13092;51.996;4.458;2022-10-31T03:22:28;32.95;;;30.27;;
25111;SDS011;13092;51.996;4.458;2022-10-31T03:25:02;33.65;;;31.05;;
25111;SDS011;13092;51.996;4.458;2022-10-31T03:27:33;33.30;;;30.70;;
25111;SDS011;13092;51.996;4.458;2022-10-31T03:30:05;34.17;;;31.40;;
25111;SDS011;13092;51.996;4.458;2022-10-31T03:32:35;34.22;;;31.42;;
25111;SDS011;13092;51.996;4.458;2022-10-31T03:35:08;33.35;;;30.75;;
25111;SDS011;13092;51.996;4.458;2022-10-31T03:37:37;34.60;;;31.67;;
25111;SDS011;13092;51.996;4.458;2022-10-31T03:40:07;35.03;;;31.92;;
25111;SDS011;13092;51.996;4.458;2022-10-31T03:42:38;33.08;;;30.48;;
25111;SDS011;13092;51.996;4.458;2022-10-31T03:45:08;35.22;;;32.42;;
25111;SDS011;13092;51.996;4.458;2022-10-31T03:47:40;35.53;;;32.53;;
25111;SDS011;13092;51.996;4.458;2022-10-31T03:50:14;36.83;;;33.10;;
25111;SDS011;13092;51.996;4.458;2022-10-31T03:52:43;34.83;;;31.92;;
25111;SDS011;13092;51.996;4.458;2022-10-31T03:55:17;35.08;;;31.90;;
25111;SDS011;13092;51.996;4.458;2022-10-31T03:57:49;34.13;;;31.30;;
25111;SDS011;13092;51.996;4.458;2022-10-31T04:00:21;34.80;;;31.90;;
25111;SDS011;13092;51.996;4.458;2022-10-31T04:02:51;35.42;;;32.28;;
25111;SDS011;13092;51.996;4.458;2022-10-31T04:05:26;35.65;;;32.45;;
25111;SDS011;13092;51.996;4.458;2022-10-31T04:07:55;34.20;;;31.10;;
25111;SDS011;13092;51.996;4.458;2022-10-31T04:10:26;34.97;;;31.98;;
25111;SDS011;13092;51.996;4.458;2022-10-31T04:13:00;34.15;;;31.05;;
25111;SDS011;13092;51.996;4.458;2022-10-31T04:15:33;35.42;;;32.13;;
25111;SDS011;13092;51.996;4.458;2022-10-31T04:18:03;33.55;;;30.75;;
25111;SDS011;13092;51.996;4.458;2022-10-31T04:20:34;35.03;;;31.90;;
25111;SDS011;13092;51.996;4.458;2022-10-31T04:23:04;33.00;;;29.95;;
25111;SDS011;13092;51.996;4.458;2022-10-31T04:25:37;33.42;;;30.52;;
25111;SDS011;13092;51.996;4.458;2022-10-31T04:28:05;33.13;;;30.30;;
25111;SDS011;13092;51.996;4.458;2022-10-31T04:30:33;33.15;;;30.25;;
25111;SDS011;13092;51.996;4.458;2022-10-31T04:33:01;32.47;;;29.48;;
25111;SDS011;13092;51.996;4.458;2022-10-31T04:35:29;32.85;;;29.85;;
25111;SDS011;13092;51.996;4.458;2022-10-31T04:37:59;33.53;;;30.52;;
25111;SDS011;13092;51.996;4.458;2022-10-31T04:40:26;33.28;;;30.02;;
25111;SDS011;13092;51.996;4.458;2022-10-31T04:42:54;32.25;;;29.40;;
25111;SDS011;13092;51.996;4.458;2022-10-31T04:45:23;32.53;;;29.45;;
25111;SDS011;13092;51.996;4.458;2022-10-31T04:47:51;33.08;;;30.38;;
25111;SDS011;13092;51.996;4.458;2022-10-31T04:50:21;32.17;;;29.33;;
25111;SDS011;13092;51.996;4.458;2022-10-31T04:52:49;32.03;;;29.45;;
25111;SDS011;13092;51.996;4.458;2022-10-31T04:55:19;31.48;;;28.88;;
25111;SDS011;13092;51.996;4.458;2022-10-31T04:57:48;32.45;;;29.50;;
25111;SDS011;13092;51.996;4.458;2022-10-31T05:00:17;32.92;;;30.02;;
25111;SDS011;13092;51.996;4.458;2022-10-31T05:02:47;31.60;;;28.55;;
25111;SDS011;13092;51.996;4.458;2022-10-31T05:05:16;32.08;;;29.42;;
25111;SDS011;13092;51.996;4.458;2022-10-31T05:07:45;32.28;;;29.20;;
25111;SDS011;13092;51.996;4.458;2022-10-31T05:10:16;32.53;;;29.48;;
25111;SDS011;13092;51.996;4.458;2022-10-31T05:12:47;32.28;;;29.58;;
25111;SDS011;13092;51.996;4.458;2022-10-31T05:15:15;33.13;;;30.20;;
25111;SDS011;13092;51.996;4.458;2022-10-31T05:17:44;32.80;;;29.88;;
25111;SDS011;13092;51.996;4.458;2022-10-31T05:20:13;33.60;;;30.30;;
25111;SDS011;13092;51.996;4.458;2022-10-31T05:22:42;31.38;;;28.77;;
25111;SDS011;13092;51.996;4.458;2022-10-31T05:25:11;31.08;;;28.38;;
25111;SDS011;13092;51.996;4.458;2022-10-31T05:27:39;33.25;;;29.98;;
25111;SDS011;13092;51.996;4.458;2022-10-31T05:30:13;34.60;;;31.33;;
25111;SDS011;13092;51.996;4.458;2022-10-31T05:32:43;32.55;;;29.65;;
25111;SDS011;13092;51.996;4.458;2022-10-31T05:35:13;33.20;;;30.08;;
25111;SDS011;13092;51.996;4.458;2022-10-31T05:37:43;31.73;;;28.80;;
25111;SDS011;13092;51.996;4.458;2022-10-31T05:40:11;32.60;;;29.70;;
25111;SDS011;13092;51.996;4.458;2022-10-31T05:42:40;32.47;;;29.48;;
25111;SDS011;13092;51.996;4.458;2022-10-31T05:45:11;31.60;;;28.35;;
25111;SDS011;13092;51.996;4.458;2022-10-31T05:47:41;30.05;;;27.30;;
25111;SDS011;13092;51.996;4.458;2022-10-31T05:50:09;30.60;;;27.95;;
25111;SDS011;13092;51.996;4.458;2022-10-31T05:52:37;29.15;;;26.55;;
25111;SDS011;13092;51.996;4.458;2022-10-31T05:55:05;29.85;;;27.05;;
25111;SDS011;13092;51.996;4.458;2022-10-31T05:57:36;30.67;;;27.92;;
25111;SDS011;13092;51.996;4.458;2022-10-31T06:00:05;30.23;;;27.63;;
25111;SDS011;13092;51.996;4.458;2022-10-31T06:02:35;30.63;;;27.58;;
25111;SDS011;13092;51.996;4.458;2022-10-31T06:05:06;31.95;;;29.13;;
25111;SDS011;13092;51.996;4.458;2022-10-31T06:07:34;31.55;;;28.38;;
25111;SDS011;13092;51.996;4.458;2022-10-31T06:10:06;31.55;;;28.63;;
25111;SDS011;13092;51.996;4.458;2022-10-31T06:12:35;31.55;;;28.58;;
25111;SDS011;13092;51.996;4.458;2022-10-31T06:15:04;31.67;;;28.98;;
25111;SDS011;13092;51.996;4.458;2022-10-31T06:17:34;32.13;;;29.05;;
25111;SDS011;13092;51.996;4.458;2022-10-31T06:20:03;32.00;;;29.15;;
25111;SDS011;13092;51.996;4.458;2022-10-31T06:22:33;32.35;;;29.27;;
25111;SDS011;13092;51.996;4.458;2022-10-31T06:25:01;32.60;;;29.48;;
25111;SDS011;13092;51.996;4.458;2022-10-31T06:27:29;32.45;;;29.55;;
25111;SDS011;13092;51.996;4.458;2022-10-31T06:29:57;32.17;;;29.02;;
25111;SDS011;13092;51.996;4.458;2022-10-31T06:32:25;30.92;;;28.23;;
25111;SDS011;13092;51.996;4.458;2022-10-31T06:34:55;33.63;;;30.17;;
25111;SDS011;13092;51.996;4.458;2022-10-31T06:37:23;32.42;;;29.35;;
25111;SDS011;13092;51.996;4.458;2022-10-31T06:39:51;30.98;;;28.08;;
25111;SDS011;13092;51.996;4.458;2022-10-31T06:42:18;29.80;;;26.92;;
25111;SDS011;13092;51.996;4.458;2022-10-31T06:44:46;30.60;;;27.50;;
25111;SDS011;13092;51.996;4.458;2022-10-31T06:47:14;30.58;;;27.50;;
25111;SDS011;13092;51.996;4.458;2022-10-31T06:49:42;29.38;;;26.25;;
25111;SDS011;13092;51.996;4.458;2022-10-31T06:52:12;29.77;;;26.75;;
25111;SDS011;13092;51.996;4.458;2022-10-31T06:54:40;29.38;;;26.75;;
25111;SDS011;13092;51.996;4.458;2022-10-31T06:57:08;30.50;;;27.55;;
25111;SDS011;13092;51.996;4.458;2022-10-31T06:59:36;31.00;;;28.10;;
25111;SDS011;13092;51.996;4.458;2022-10-31T07:02:03;30.85;;;27.80;;
25111;SDS011;13092;51.996;4.458;2022-10-31T07:04:34;29.55;;;26.52;;
25111;SDS011;13092;51.996;4.458;2022-10-31T07:07:03;29.65;;;26.65;;
25111;SDS011;13092;51.996;4.458;2022-10-31T07:09:32;27.45;;;24.85;;
25111;SDS011;13092;51.996;4.458;2022-10-31T07:12:02;28.88;;;25.98;;
25111;SDS011;13092;51.996;4.458;2022-10-31T07:14:30;28.60;;;25.73;;
25111;SDS011;13092;51.996;4.458;2022-10-31T07:16:59;29.50;;;26.48;;
25111;SDS011;13092;51.996;4.458;2022-10-31T07:19:27;29.50;;;26.65;;
25111;SDS011;13092;51.996;4.458;2022-10-31T07:21:55;32.67;;;28.05;;
25111;SDS011;13092;51.996;4.458;2022-10-31T07:24:24;29.27;;;26.27;;
25111;SDS011;13092;51.996;4.458;2022-10-31T07:26:53;30.52;;;26.92;;
25111;SDS011;13092;51.996;4.458;2022-10-31T07:29:21;31.13;;;27.83;;
25111;SDS011;13092;51.996;4.458;2022-10-31T07:31:49;29.55;;;26.50;;
25111;SDS011;13092;51.996;4.458;2022-10-31T07:34:17;31.98;;;27.10;;
25111;SDS011;13092;51.996;4.458;2022-10-31T07:36:45;33.33;;;28.50;;
25111;SDS011;13092;51.996;4.458;2022-10-31T07:39:13;30.00;;;26.83;;
25111;SDS011;13092;51.996;4.458;2022-10-31T07:41:42;30.80;;;27.02;;
25111;SDS011;13092;51.996;4.458;2022-10-31T07:44:11;29.88;;;26.85;;
25111;SDS011;13092;51.996;4.458;2022-10-31T07:46:39;28.33;;;25.58;;
25111;SDS011;13092;51.996;4.458;2022-10-31T07:49:07;29.00;;;26.10;;
25111;SDS011;13092;51.996;4.458;2022-10-31T07:51:35;28.75;;;25.80;;
25111;SDS011;13092;51.996;4.458;2022-10-31T07:54:06;29.77;;;26.60;;
25111;SDS011;13092;51.996;4.458;2022-10-31T07:56:34;29.08;;;25.85;;
25111;SDS011;13092;51.996;4.458;2022-10-31T07:59:02;30.30;;;27.13;;
25111;SDS011;13092;51.996;4.458;2022-10-31T08:01:32;33.08;;;27.40;;
25111;SDS011;13092;51.996;4.458;2022-10-31T08:04:00;30.42;;;27.25;;
25111;SDS011;13092;51.996;4.458;2022-10-31T08:06:28;35.75;;;27.63;;
25111;SDS011;13092;51.996;4.458;2022-10-31T08:08:56;31.02;;;27.73;;
25111;SDS011;13092;51.996;4.458;2022-10-31T08:11:24;32.00;;;28.60;;
25111;SDS011;13092;51.996;4.458;2022-10-31T08:13:52;32.42;;;28.77;;
25111;SDS011;13092;51.996;4.458;2022-10-31T08:16:20;36.75;;;29.63;;
25111;SDS011;13092;51.996;4.458;2022-10-31T08:18:49;30.70;;;27.38;;
25111;SDS011;13092;51.996;4.458;2022-10-31T08:21:18;33.70;;;27.63;;
25111;SDS011;13092;51.996;4.458;2022-10-31T08:23:46;34.55;;;28.58;;
25111;SDS011;13092;51.996;4.458;2022-10-31T08:26:14;33.20;;;29.52;;
25111;SDS011;13092;51.996;4.458;2022-10-31T08:28:42;32.97;;;29.48;;
25111;SDS011;13092;51.996;4.458;2022-10-31T08:31:10;33.78;;;29.13;;
25111;SDS011;13092;51.996;4.458;2022-10-31T08:33:38;33.58;;;29.13;;
25111;SDS011;13092;51.996;4.458;2022-10-31T08:36:07;33.08;;;29.17;;
25111;SDS011;13092;51.996;4.458;2022-10-31T08:38:36;37.88;;;29.63;;
25111;SDS011;13092;51.996;4.458;2022-10-31T08:41:04;33.92;;;30.13;;
25111;SDS011;13092;51.996;4.458;2022-10-31T08:43:32;33.60;;;30.27;;
25111;SDS011;13092;51.996;4.458;2022-10-31T08:46:00;35.05;;;28.83;;
25111;SDS011;13092;51.996;4.458;2022-10-31T08:48:29;32.33;;;28.95;;
25111;SDS011;13092;51.996;4.458;2022-10-31T08:50:58;34.10;;;30.02;;
25111;SDS011;13092;51.996;4.458;2022-10-31T08:53:28;33.85;;;30.40;;
25111;SDS011;13092;51.996;4.458;2022-10-31T08:55:56;33.63;;;29.27;;
25111;SDS011;13092;51.996;4.458;2022-10-31T08:58:24;34.65;;;29.95;;
25111;SDS011;13092;51.996;4.458;2022-10-31T09:00:53;40.72;;;35.22;;
25111;SDS011;13092;51.996;4.458;2022-10-31T09:03:24;35.10;;;31.50;;
25111;SDS011;13092;51.996;4.458;2022-10-31T09:05:54;31.30;;;28.30;;
25111;SDS011;13092;51.996;4.458;2022-10-31T09:08:24;31.00;;;27.63;;
25111;SDS011;13092;51.996;4.458;2022-10-31T09:10:55;31.73;;;28.52;;
25111;SDS011;13092;51.996;4.458;2022-10-31T09:13:26;31.40;;;28.10;;
25111;SDS011;13092;51.996;4.458;2022-10-31T09:15:55;32.05;;;27.73;;
25111;SDS011;13092;51.996;4.458;2022-10-31T09:18:24;30.23;;;27.35;;
25111;SDS011;13092;51.996;4.458;2022-10-31T09:20:54;31.00;;;27.90;;
25111;SDS011;13092;51.996;4.458;2022-10-31T09:23:24;30.92;;;27.50;;
25111;SDS011;13092;51.996;4.458;2022-10-31T09:25:54;31.25;;;28.02;;
25111;SDS011;13092;51.996;4.458;2022-10-31T09:28:23;31.05;;;28.05;;
25111;SDS011;13092;51.996;4.458;2022-10-31T09:30:52;31.10;;;28.13;;
25111;SDS011;13092;51.996;4.458;2022-10-31T09:33:20;31.13;;;28.23;;
25111;SDS011;13092;51.996;4.458;2022-10-31T09:35:48;32.15;;;28.98;;
25111;SDS011;13092;51.996;4.458;2022-10-31T09:38:17;31.50;;;28.20;;
25111;SDS011;13092;51.996;4.458;2022-10-31T09:40:47;32.25;;;29.25;;
25111;SDS011;13092;51.996;4.458;2022-10-31T09:43:25;33.10;;;30.00;;
25111;SDS011;13092;51.996;4.458;2022-10-31T09:46:03;31.92;;;28.92;;
25111;SDS011;13092;51.996;4.458;2022-10-31T09:48:41;33.88;;;30.73;;
25111;SDS011;13092;51.996;4.458;2022-10-31T09:51:17;30.73;;;27.50;;
25111;SDS011;13092;51.996;4.458;2022-10-31T09:53:49;30.05;;;27.35;;
25111;SDS011;13092;51.996;4.458;2022-10-31T09:56:21;30.85;;;28.00;;
25111;SDS011;13092;51.996;4.458;2022-10-31T09:58:58;31.02;;;28.23;;
25111;SDS011;13092;51.996;4.458;2022-10-31T10:01:30;31.42;;;28.40;;
25111;SDS011;13092;51.996;4.458;2022-10-31T10:04:10;30.92;;;27.75;;
25111;SDS011;13092;51.996;4.458;2022-10-31T10:06:49;29.52;;;26.83;;
25111;SDS011;13092;51.996;4.458;2022-10-31T10:09:18;29.08;;;26.05;;
25111;SDS011;13092;51.996;4.458;2022-10-31T10:11:52;28.88;;;26.25;;
25111;SDS011;13092;51.996;4.458;2022-10-31T10:14:34;28.30;;;25.63;;
25111;SDS011;13092;51.996;4.458;2022-10-31T10:17:13;28.63;;;26.05;;
25111;SDS011;13092;51.996;4.458;2022-10-31T10:19:56;30.90;;;27.73;;
25111;SDS011;13092;51.996;4.458;2022-10-31T10:22:47;30.42;;;27.77;;
25111;SDS011;13092;51.996;4.458;2022-10-31T10:25:38;30.67;;;27.67;;
25111;SDS011;13092;51.996;4.458;2022-10-31T10:36:54;28.70;;;26.13;;
25111;SDS011;13092;51.996;4.458;2022-10-31T10:39:25;26.10;;;23.60;;
25111;SDS011;13092;51.996;4.458;2022-10-31T10:41:59;26.95;;;24.20;;
25111;SDS011;13092;51.996;4.458;2022-10-31T10:44:45;24.38;;;21.98;;
25111;SDS011;13092;51.996;4.458;2022-10-31T10:47:36;22.90;;;20.70;;
25111;SDS011;13092;51.996;4.458;2022-10-31T10:50:10;24.77;;;22.52;;
25111;SDS011;13092;51.996;4.458;2022-10-31T10:52:45;27.73;;;25.08;;
25111;SDS011;13092;51.996;4.458;2022-10-31T10:55:24;28.42;;;26.02;;
25111;SDS011;13092;51.996;4.458;2022-10-31T10:58:00;28.73;;;26.35;;
25111;SDS011;13092;51.996;4.458;2022-10-31T11:00:30;33.05;;;29.92;;
25111;SDS011;13092;51.996;4.458;2022-10-31T11:03:02;32.78;;;29.88;;
25111;SDS011;13092;51.996;4.458;2022-10-31T11:05:33;33.53;;;30.33;;
25111;SDS011;13092;51.996;4.458;2022-10-31T11:08:06;34.60;;;31.02;;
25111;SDS011;13092;51.996;4.458;2022-10-31T11:10:34;34.75;;;31.45;;
25111;SDS011;13092;51.996;4.458;2022-10-31T11:13:04;34.60;;;30.83;;
25111;SDS011;13092;51.996;4.458;2022-10-31T11:15:49;33.40;;;30.20;;
25111;SDS011;13092;51.996;4.458;2022-10-31T11:18:22;34.83;;;31.38;;
25111;SDS011;13092;51.996;4.458;2022-10-31T11:20:53;33.55;;;30.60;;
25111;SDS011;13092;51.996;4.458;2022-10-31T11:23:25;33.78;;;29.67;;
25111;SDS011;13092;51.996;4.458;2022-10-31T11:25:55;34.17;;;30.67;;
25111;SDS011;13092;51.996;4.458;2022-10-31T11:28:24;34.15;;;30.95;;
25111;SDS011;13092;51.996;4.458;2022-10-31T11:30:55;33.42;;;30.20;;
25111;SDS011;13092;51.996;4.458;2022-10-31T11:33:26;33.53;;;30.42;;
25111;SDS011;13092;51.996;4.458;2022-10-31T11:35:58;34.30;;;30.92;;
25111;SDS011;13092;51.996;4.458;2022-10-31T11:38:31;33.70;;;30.50;;
25111;SDS011;13092;51.996;4.458;2022-10-31T11:41:10;34.83;;;31.63;;
25111;SDS011;13092;51.996;4.458;2022-10-31T11:43:45;34.20;;;31.17;;
25111;SDS011;13092;51.996;4.458;2022-10-31T11:46:18;34.78;;;31.40;;
25111;SDS011;13092;51.996;4.458;2022-10-31T11:48:49;36.10;;;32.72;;
25111;SDS011;13092;51.996;4.458;2022-10-31T11:51:22;35.97;;;32.67;;
25111;SDS011;13092;51.996;4.458;2022-10-31T11:53:55;36.20;;;32.80;;
25111;SDS011;13092;51.996;4.458;2022-10-31T11:56:37;36.85;;;33.47;;
25111;SDS011;13092;51.996;4.458;2022-10-31T11:59:14;35.97;;;32.30;;
25111;SDS011;13092;51.996;4.458;2022-10-31T12:01:48;36.00;;;32.33;;
25111;SDS011;13092;51.996;4.458;2022-10-31T12:04:18;37.00;;;33.53;;
25111;SDS011;13092;51.996;4.458;2022-10-31T12:06:51;40.10;;;36.25;;
25111;SDS011;13092;51.996;4.458;2022-10-31T12:09:22;41.08;;;37.03;;
25111;SDS011;13092;51.996;4.458;2022-10-31T12:14:43;38.40;;;34.47;;
25111;SDS011;13092;51.996;4.458;2022-10-31T12:17:19;39.15;;;35.22;;
25111;SDS011;13092;51.996;4.458;2022-10-31T12:19:54;38.55;;;34.90;;
25111;SDS011;13092;51.996;4.458;2022-10-31T12:22:31;39.92;;;35.95;;
25111;SDS011;13092;51.996;4.458;2022-10-31T12:25:12;38.55;;;34.85;;
25111;SDS011;13092;51.996;4.458;2022-10-31T12:27:57;40.10;;;36.15;;
25111;SDS011;13092;51.996;4.458;2022-10-31T12:30:42;39.53;;;35.83;;
25111;SDS011;13092;51.996;4.458;2022-10-31T12:33:29;41.83;;;37.75;;
25111;SDS011;13092;51.996;4.458;2022-10-31T12:39:02;41.33;;;37.22;;
25111;SDS011;13092;51.996;4.458;2022-10-31T12:41:46;41.25;;;37.38;;
25111;SDS011;13092;51.996;4.458;2022-10-31T12:44:30;41.67;;;37.58;;
25111;SDS011;13092;51.996;4.458;2022-10-31T12:47:24;43.00;;;38.85;;
25111;SDS011;13092;51.996;4.458;2022-10-31T12:50:02;42.67;;;38.55;;
25111;SDS011;13092;51.996;4.458;2022-10-31T12:52:48;43.42;;;39.17;;
25111;SDS011;13092;51.996;4.458;2022-10-31T12:55:31;43.70;;;39.38;;
25111;SDS011;13092;51.996;4.458;2022-10-31T12:58:10;44.67;;;40.30;;
25111;SDS011;13092;51.996;4.458;2022-10-31T13:00:46;43.20;;;38.70;;
25111;SDS011;13092;51.996;4.458;2022-10-31T13:03:35;45.85;;;41.38;;
25111;SDS011;13092;51.996;4.458;2022-10-31T13:06:12;45.10;;;40.55;;
25111;SDS011;13092;51.996;4.458;2022-10-31T13:08:46;44.30;;;39.60;;
25111;SDS011;13092;51.996;4.458;2022-10-31T13:11:20;43.40;;;39.30;;
25111;SDS011;13092;51.996;4.458;2022-10-31T13:13:55;43.75;;;39.70;;
25111;SDS011;13092;51.996;4.458;2022-10-31T13:16:30;43.47;;;39.45;;
25111;SDS011;13092;51.996;4.458;2022-10-31T13:19:03;44.25;;;39.83;;
25111;SDS011;13092;51.996;4.458;2022-10-31T13:21:41;45.00;;;40.97;;
25111;SDS011;13092;51.996;4.458;2022-10-31T13:24:18;44.28;;;39.83;;
25111;SDS011;13092;51.996;4.458;2022-10-31T13:26:50;44.50;;;40.38;;
25111;SDS011;13092;51.996;4.458;2022-10-31T13:29:23;44.58;;;40.10;;
25111;SDS011;13092;51.996;4.458;2022-10-31T13:31:58;43.10;;;38.88;;
25111;SDS011;13092;51.996;4.458;2022-10-31T13:34:31;44.58;;;40.15;;
25111;SDS011;13092;51.996;4.458;2022-10-31T13:37:09;45.80;;;39.83;;
25111;SDS011;13092;51.996;4.458;2022-10-31T13:39:48;43.72;;;39.38;;
25111;SDS011;13092;51.996;4.458;2022-10-31T13:42:34;45.15;;;40.88;;
25111;SDS011;13092;51.996;4.458;2022-10-31T13:45:15;45.53;;;41.13;;
25111;SDS011;13092;51.996;4.458;2022-10-31T13:47:56;46.53;;;42.05;;
25111;SDS011;13092;51.996;4.458;2022-10-31T13:50:35;44.88;;;40.65;;
25111;SDS011;13092;51.996;4.458;2022-10-31T13:53:19;48.47;;;43.45;;
25111;SDS011;13092;51.996;4.458;2022-10-31T13:55:49;49.35;;;44.42;;
25111;SDS011;13092;51.996;4.458;2022-10-31T13:58:30;50.30;;;45.03;;
25111;SDS011;13092;51.996;4.458;2022-10-31T14:04:03;52.35;;;46.90;;
25111;SDS011;13092;51.996;4.458;2022-10-31T14:06:48;51.80;;;45.90;;
25111;SDS011;13092;51.996;4.458;2022-10-31T14:09:50;51.25;;;46.05;;
25111;SDS011;13092;51.996;4.458;2022-10-31T14:12:37;48.78;;;43.95;;
25111;SDS011;13092;51.996;4.458;2022-10-31T14:22:20;50.92;;;45.70;;
25111;SDS011;13092;51.996;4.458;2022-10-31T14:24:58;50.45;;;44.95;;
25111;SDS011;13092;51.996;4.458;2022-10-31T14:27:42;51.28;;;45.88;;
25111;SDS011;13092;51.996;4.458;2022-10-31T14:30:32;51.20;;;44.78;;
25111;SDS011;13092;51.996;4.458;2022-10-31T14:36:25;48.47;;;43.22;;
25111;SDS011;13092;51.996;4.458;2022-10-31T14:39:06;49.58;;;44.22;;
25111;SDS011;13092;51.996;4.458;2022-10-31T14:41:48;50.63;;;45.55;;
25111;SDS011;13092;51.996;4.458;2022-10-31T14:44:34;50.33;;;45.03;;
25111;SDS011;13092;51.996;4.458;2022-10-31T14:47:37;47.53;;;42.92;;
25111;SDS011;13092;51.996;4.458;2022-10-31T14:50:24;50.20;;;44.72;;
25111;SDS011;13092;51.996;4.458;2022-10-31T14:53:14;50.15;;;45.28;;
25111;SDS011;13092;51.996;4.458;2022-10-31T14:55:56;50.58;;;45.40;;
25111;SDS011;13092;51.996;4.458;2022-10-31T14:58:40;48.92;;;44.08;;
25111;SDS011;13092;51.996;4.458;2022-10-31T15:01:35;50.33;;;45.10;;
25111;SDS011;13092;51.996;4.458;2022-10-31T15:04:13;51.72;;;46.17;;
25111;SDS011;13092;51.996;4.458;2022-10-31T15:06:59;54.70;;;45.83;;
25111;SDS011;13092;51.996;4.458;2022-10-31T15:09:34;50.45;;;45.28;;
25111;SDS011;13092;51.996;4.458;2022-10-31T15:12:22;50.22;;;44.83;;
25111;SDS011;13092;51.996;4.458;2022-10-31T15:15:18;48.25;;;43.33;;
25111;SDS011;13092;51.996;4.458;2022-10-31T15:17:52;53.22;;;44.05;;
25111;SDS011;13092;51.996;4.458;2022-10-31T15:20:30;48.97;;;43.92;;
25111;SDS011;13092;51.996;4.458;2022-10-31T15:23:09;52.22;;;44.53;;
25111;SDS011;13092;51.996;4.458;2022-10-31T15:25:41;50.95;;;43.20;;
25111;SDS011;13092;51.996;4.458;2022-10-31T15:31:05;47.97;;;42.40;;
25111;SDS011;13092;51.996;4.458;2022-10-31T15:33:45;46.60;;;41.72;;